Time;durP1;ratioP1;P1;durP2;ratioP2;P2;SDS_P1;SDS_P2;PMS_P1;PMS_P2;Temp;Humidity;BMP_temperature;BMP_pressure;BME280_temperature;BME280_humidity;BME280_pressure;Samples;Min_cycle;Max_cycle;Signal;HPM_P1;HPM_P2
2023/07/24 00:02:21;;;;;;;6.77;4.00;;;17.50;99.90;;;;;;4389626;28;656776;-64
2023/07/24 00:05:09;;;;;;;6.00;3.80;;;17.50;99.90;;;;;;4408182;28;656848;-64
2023/07/24 00:07:57;;;;;;;5.87;3.57;;;17.50;99.90;;;;;;4384633;28;657536;-64
2023/07/24 00:10:45;;;;;;;5.80;3.50;;;17.50;99.90;;;;;;4414475;28;656910;-64
2023/07/24 00:13:33;;;;;;;5.33;3.30;;;17.50;99.90;;;;;;4380392;28;657729;-64
2023/07/24 00:16:20;;;;;;;5.57;3.20;;;17.60;99.90;;;;;;4404460;28;656655;-65
2023/07/24 00:19:07;;;;;;;6.93;3.70;;;17.50;99.90;;;;;;4415405;28;656508;-64
2023/07/24 00:21:54;;;;;;;8.23;3.20;;;17.50;99.90;;;;;;4408844;28;656651;-64
2023/07/24 00:24:42;;;;;;;6.07;3.50;;;17.50;99.90;;;;;;4383829;28;657019;-64
2023/07/24 00:27:30;;;;;;;6.43;3.57;;;17.60;99.90;;;;;;4403691;28;658031;-65
2023/07/24 00:30:18;;;;;;;8.87;3.60;;;17.70;99.90;;;;;;4381442;28;657986;-64
2023/07/24 00:33:05;;;;;;;5.60;3.43;;;17.80;99.90;;;;;;4404332;28;657095;-64
2023/07/24 00:35:56;;;;;;;5.95;3.25;;;17.80;99.90;;;;;;4417131;28;657243;-64
2023/07/24 00:38:43;;;;;;;5.57;3.50;;;17.80;99.90;;;;;;4387295;28;657667;-64
2023/07/24 00:41:30;;;;;;;5.40;3.40;;;17.80;99.90;;;;;;4398155;28;656504;-65
2023/07/24 00:44:20;;;;;;;7.10;3.63;;;17.80;99.90;;;;;;4413595;28;656287;-64
2023/07/24 00:47:07;;;;;;;5.60;3.30;;;17.90;99.90;;;;;;4391790;28;658504;-65
2023/07/24 00:49:54;;;;;;;4.90;3.23;;;17.90;99.90;;;;;;4409225;28;657075;-64
2023/07/24 00:52:41;;;;;;;4.77;3.10;;;17.90;99.90;;;;;;4391104;28;656920;-64
2023/07/24 00:55:29;;;;;;;7.77;3.60;;;17.90;99.90;;;;;;4404702;28;656456;-64
2023/07/24 00:58:16;;;;;;;5.93;3.37;;;18.00;99.90;;;;;;4392310;28;656560;-64
2023/07/24 01:01:04;;;;;;;9.17;3.80;;;18.00;99.90;;;;;;4417810;28;657190;-65
2023/07/24 01:03:52;;;;;;;9.60;4.97;;;18.10;99.90;;;;;;4387775;28;657846;-64
2023/07/24 01:06:39;;;;;;;5.30;3.60;;;18.10;99.90;;;;;;4406762;28;657292;-64
2023/07/24 01:09:26;;;;;;;7.03;3.67;;;18.00;99.90;;;;;;4392482;28;656434;-64
2023/07/24 01:12:16;;;;;;;7.33;3.27;;;18.00;99.90;;;;;;4411315;28;657632;-64
2023/07/24 01:15:07;;;;;;;7.70;3.43;;;18.10;99.90;;;;;;4382711;28;656691;-64
2023/07/24 01:17:58;;;;;;;9.13;4.00;;;18.30;99.90;;;;;;4387671;28;656174;-65
2023/07/24 01:20:49;;;;;;;5.33;3.20;;;18.70;99.90;;;;;;4374103;28;656571;-65
2023/07/24 01:23:46;;;;;;;5.97;3.50;;;18.80;99.90;;;;;;4393397;28;656754;-64
2023/07/24 01:26:34;;;;;;;6.43;3.70;;;18.90;99.90;;;;;;4386029;28;656697;-64
2023/07/24 01:29:21;;;;;;;8.50;3.60;;;18.90;99.90;;;;;;4388276;28;656624;-64
2023/07/24 01:32:09;;;;;;;6.33;3.73;;;18.90;99.90;;;;;;4412499;28;656946;-64
2023/07/24 01:34:56;;;;;;;6.10;3.47;;;18.90;99.90;;;;;;4391895;28;656669;-64
2023/07/24 01:37:43;;;;;;;5.32;3.65;;;18.80;99.90;;;;;;4404166;28;657584;-65
2023/07/24 01:40:31;;;;;;;6.73;4.00;;;18.70;99.90;;;;;;4387071;28;656964;-64
2023/07/24 01:43:19;;;;;;;6.17;3.50;;;18.70;99.90;;;;;;4411873;28;657568;-64
2023/07/24 01:46:08;;;;;;;6.93;3.70;;;18.70;99.90;;;;;;4388521;28;656948;-64
2023/07/24 01:48:55;;;;;;;6.43;3.40;;;18.60;99.90;;;;;;4393191;28;656489;-64
2023/07/24 01:51:42;;;;;;;4.83;3.33;;;18.60;99.90;;;;;;4409548;28;657486;-64
2023/07/24 01:54:29;;;;;;;7.40;3.60;;;18.50;99.90;;;;;;4412997;28;656519;-64
2023/07/24 01:57:17;;;;;;;8.33;3.87;;;18.40;99.90;;;;;;4391597;28;656838;-64
2023/07/24 02:00:07;;;;;;;11.03;3.63;;;18.40;99.90;;;;;;4392474;28;656727;-64
2023/07/24 02:02:54;;;;;;;7.57;3.80;;;18.40;99.90;;;;;;4383131;28;658687;-65
2023/07/24 02:05:41;;;;;;;8.43;3.40;;;18.30;99.90;;;;;;4389371;28;656156;-64
2023/07/24 02:08:29;;;;;;;8.10;3.73;;;18.30;99.90;;;;;;4412453;28;656896;-65
2023/07/24 02:11:16;;;;;;;5.23;3.60;;;18.20;99.90;;;;;;4389434;28;656780;-64
2023/07/24 02:14:03;;;;;;;6.57;3.70;;;18.20;99.90;;;;;;4411964;28;658452;-64
2023/07/24 02:16:52;;;;;;;6.70;4.03;;;18.10;99.90;;;;;;4394252;28;656736;-64
2023/07/24 02:19:39;;;;;;;4.90;3.50;;;18.10;99.90;;;;;;4416440;28;656870;-64
2023/07/24 02:22:26;;;;;;;6.90;3.60;;;18.10;99.90;;;;;;4385161;28;656824;-64
2023/07/24 02:25:13;;;;;;;6.93;3.60;;;18.00;99.90;;;;;;4412544;28;655889;-64
2023/07/24 02:28:01;;;;;;;9.10;3.70;;;17.90;99.90;;;;;;4384158;28;657069;-64
2023/07/24 02:30:48;;;;;;;6.77;3.90;;;17.80;99.90;;;;;;4410395;28;657657;-64
2023/07/24 02:33:37;;;;;;;8.63;4.13;;;17.80;99.90;;;;;;4386903;28;656918;-65
2023/07/24 02:36:24;;;;;;;6.97;3.90;;;17.70;99.90;;;;;;4413946;28;656231;-64
2023/07/24 02:39:11;;;;;;;10.43;4.03;;;17.60;99.90;;;;;;4388376;28;657826;-64
2023/07/24 02:41:58;;;;;;;6.57;4.00;;;17.60;99.90;;;;;;4409606;28;658255;-64
2023/07/24 02:44:45;;;;;;;6.97;4.20;;;17.50;99.90;;;;;;4390284;28;656772;-64
2023/07/24 02:47:32;;;;;;;9.43;4.20;;;17.40;99.90;;;;;;4405162;28;658349;-64
2023/07/24 02:50:22;;;;;;;6.93;4.03;;;17.30;99.90;;;;;;4406128;28;657025;-65
2023/07/24 02:53:09;;;;;;;8.20;4.10;;;17.30;99.90;;;;;;4400568;28;656949;-64
2023/07/24 02:55:56;;;;;;;8.40;4.10;;;17.20;99.90;;;;;;4383556;28;657261;-64
2023/07/24 02:58:43;;;;;;;6.37;4.00;;;17.10;99.90;;;;;;4407546;28;657006;-64
2023/07/24 03:01:30;;;;;;;7.33;4.20;;;17.10;99.90;;;;;;4386676;28;656412;-64
2023/07/24 03:04:17;;;;;;;10.13;4.40;;;17.00;99.90;;;;;;4407280;28;657708;-64
2023/07/24 03:07:07;;;;;;;6.27;3.90;;;17.00;99.90;;;;;;4401165;28;657787;-64
2023/07/24 03:09:54;;;;;;;7.43;4.50;;;16.90;99.90;;;;;;4408677;28;656937;-64
2023/07/24 03:12:41;;;;;;;8.23;4.50;;;16.80;99.90;;;;;;4387718;28;657077;-64
2023/07/24 03:15:28;;;;;;;12.67;4.90;;;16.70;99.90;;;;;;4406012;28;657385;-64
2023/07/24 03:18:15;;;;;;;11.27;4.20;;;16.70;99.90;;;;;;4386522;28;657999;-65
2023/07/24 03:21:03;;;;;;;6.27;4.07;;;16.60;99.90;;;;;;4407090;28;659085;-64
2023/07/24 03:23:52;;;;;;;8.70;4.40;;;16.60;99.90;;;;;;4390801;28;656388;-64
2023/07/24 03:26:39;;;;;;;8.13;4.60;;;16.60;99.90;;;;;;4410707;28;656960;-64
2023/07/24 03:29:26;;;;;;;7.20;4.30;;;16.60;99.90;;;;;;4387689;28;656390;-64
2023/07/24 03:32:14;;;;;;;9.90;4.70;;;16.60;99.90;;;;;;4407912;28;656004;-65
2023/07/24 03:35:01;;;;;;;9.00;4.45;;;16.60;99.90;;;;;;4391699;28;657865;-64
2023/07/24 03:37:48;;;;;;;9.70;4.57;;;16.60;99.90;;;;;;4404789;28;657798;-65
2023/07/24 03:40:37;;;;;;;7.40;4.50;;;16.60;99.90;;;;;;4386362;28;656941;-64
2023/07/24 03:43:24;;;;;;;10.33;4.40;;;16.70;99.90;;;;;;4408737;28;656275;-64
2023/07/24 03:46:11;;;;;;;7.83;4.57;;;16.60;99.90;;;;;;4389040;28;659920;-64
2023/07/24 03:48:58;;;;;;;8.57;4.70;;;16.70;99.90;;;;;;4409224;28;658637;-64
2023/07/24 03:51:45;;;;;;;8.00;4.33;;;16.70;99.90;;;;;;4388882;28;655937;-65
2023/07/24 03:54:33;;;;;;;10.83;4.63;;;16.70;99.90;;;;;;4409174;28;657885;-64
2023/07/24 03:57:21;;;;;;;9.30;4.50;;;16.80;99.90;;;;;;4393077;28;658431;-64
2023/07/24 04:00:10;;;;;;;10.90;4.50;;;16.90;99.90;;;;;;4407837;28;657700;-64
2023/07/24 04:02:57;;;;;;;8.53;4.60;;;16.90;99.90;;;;;;4386149;28;659043;-64
2023/07/24 04:05:44;;;;;;;8.43;4.33;;;16.90;99.90;;;;;;4413509;28;656391;-64
2023/07/24 04:08:31;;;;;;;7.27;4.30;;;17.00;99.90;;;;;;4391644;28;656626;-64
2023/07/24 04:11:19;;;;;;;8.50;4.40;;;17.10;99.90;;;;;;4414403;28;657374;-64
2023/07/24 04:14:07;;;;;;;10.00;4.70;;;17.20;99.90;;;;;;4394786;28;656964;-64
2023/07/24 04:16:55;;;;;;;9.20;4.70;;;17.30;99.90;;;;;;4411644;28;657352;-64
2023/07/24 04:19:43;;;;;;;9.50;4.70;;;17.30;99.90;;;;;;4391506;28;656590;-64
2023/07/24 04:22:30;;;;;;;8.27;5.10;;;17.40;99.90;;;;;;4396237;28;656410;-64
2023/07/24 04:25:17;;;;;;;9.50;4.20;;;17.50;99.90;;;;;;4411823;28;656973;-64
2023/07/24 04:28:05;;;;;;;16.40;4.30;;;17.60;99.90;;;;;;4410387;28;656284;-64
2023/07/24 04:30:54;;;;;;;8.47;4.47;;;17.70;99.90;;;;;;4406682;28;658467;-65
2023/07/24 04:33:41;;;;;;;9.27;4.27;;;17.80;99.90;;;;;;4392615;28;656285;-65
2023/07/24 04:36:28;;;;;;;9.77;4.30;;;17.90;99.90;;;;;;4410620;28;656937;-64
2023/07/24 04:39:15;;;;;;;6.63;4.37;;;18.10;99.90;;;;;;4389886;28;657219;-64
2023/07/24 04:42:02;;;;;;;9.77;5.17;;;18.20;99.90;;;;;;4405564;28;657350;-64
2023/07/24 04:44:51;;;;;;;10.43;4.17;;;18.30;99.90;;;;;;4403650;28;656939;-64
2023/07/24 04:47:40;;;;;;;9.73;5.10;;;18.50;99.90;;;;;;4408705;28;658795;-64
2023/07/24 04:50:27;;;;;;;7.60;4.70;;;18.60;99.90;;;;;;4390101;28;657981;-64
2023/07/24 04:53:14;;;;;;;6.87;4.47;;;18.80;99.90;;;;;;4413834;28;656378;-64
2023/07/24 04:56:01;;;;;;;9.90;4.20;;;18.90;99.90;;;;;;4393959;28;656784;-64
2023/07/24 04:58:48;;;;;;;7.07;4.60;;;19.10;99.90;;;;;;4407670;28;656702;-64
2023/07/24 05:01:35;;;;;;;9.97;4.60;;;19.30;99.90;;;;;;4387239;28;657211;-65
2023/07/24 05:04:24;;;;;;;8.50;4.73;;;19.50;99.90;;;;;;4409679;28;658163;-64
2023/07/24 05:07:11;;;;;;;9.27;4.47;;;19.80;99.90;;;;;;4389866;28;656814;-64
2023/07/24 05:09:58;;;;;;;12.70;5.50;;;20.10;99.90;;;;;;4414035;28;656713;-64
2023/07/24 05:12:46;;;;;;;9.13;5.00;;;20.30;99.90;;;;;;4389160;28;657761;-64
2023/07/24 05:15:33;;;;;;;8.57;5.00;;;20.50;99.90;;;;;;4408628;28;657795;-64
2023/07/24 05:18:20;;;;;;;8.43;4.77;;;20.60;99.90;;;;;;4394190;28;656593;-64
2023/07/24 05:21:09;;;;;;;8.17;5.37;;;20.80;99.90;;;;;;4412882;28;657195;-64
2023/07/24 05:23:56;;;;;;;11.83;5.10;;;20.90;1.00;;;;;;4380105;28;656342;-65
2023/07/24 05:26:43;;;;;;;10.63;5.63;;;21.10;1.00;;;;;;4411018;28;657139;-64
2023/07/24 05:29:30;;;;;;;10.17;5.37;;;21.30;99.90;;;;;;4389682;28;657489;-65
2023/07/24 05:32:17;;;;;;;10.70;5.60;;;21.50;99.90;;;;;;4411415;28;658822;-64
2023/07/24 05:35:06;;;;;;;9.73;5.60;;;21.60;99.90;;;;;;4405333;28;657408;-64
2023/07/24 05:37:54;;;;;;;14.70;5.57;;;21.60;99.90;;;;;;4406047;28;656530;-64
2023/07/24 05:40:42;;;;;;;12.00;5.43;;;21.80;99.90;;;;;;4386010;28;657781;-70
2023/07/24 05:43:29;;;;;;;9.97;4.90;;;21.80;99.90;;;;;;4407872;28;656744;-71
2023/07/24 05:46:16;;;;;;;15.50;5.37;;;22.00;99.90;;;;;;4392034;28;656945;-71
2023/07/24 05:49:03;;;;;;;10.33;4.83;;;22.10;99.90;;;;;;4410079;28;658162;-71
2023/07/24 05:51:52;;;;;;;9.37;5.00;;;22.20;99.90;;;;;;4387995;28;657908;-71
2023/07/24 05:54:40;;;;;;;12.57;5.43;;;22.20;99.90;;;;;;4405898;28;656784;-72
2023/07/24 05:57:28;;;;;;;8.80;5.20;;;22.30;99.90;;;;;;4387442;28;658082;-71
2023/07/24 06:00:16;;;;;;;8.17;5.50;;;22.40;99.90;;;;;;4404939;28;656849;-71
2023/07/24 06:03:03;;;;;;;9.50;5.47;;;22.30;99.90;;;;;;4415691;28;657250;-70
2023/07/24 06:05:53;;;;;;;11.43;5.87;;;22.30;99.90;;;;;;4396162;28;656310;-70
2023/07/24 06:08:40;;;;;;;9.03;5.67;;;22.40;99.90;;;;;;4389218;28;657892;-70
2023/07/24 06:11:29;;;;;;;8.83;5.63;;;22.40;99.90;;;;;;4407159;28;657857;-70
2023/07/24 06:14:16;;;;;;;12.60;6.00;;;22.50;99.90;;;;;;4379973;28;656313;-70
2023/07/24 06:17:04;;;;;;;11.87;6.00;;;22.70;99.90;;;;;;4407217;28;658486;-70
2023/07/24 06:19:51;;;;;;;9.37;5.67;;;22.80;99.90;;;;;;4387166;28;657503;-70
2023/07/24 06:22:38;;;;;;;11.00;5.50;;;22.90;99.90;;;;;;4407172;28;657801;-71
2023/07/24 06:25:25;;;;;;;11.00;5.80;;;23.00;99.90;;;;;;4389277;28;657826;-70
2023/07/24 06:28:14;;;;;;;12.70;5.73;;;22.90;99.90;;;;;;4408550;28;658794;-70
2023/07/24 06:31:01;;;;;;;11.57;5.70;;;23.10;99.90;;;;;;4390714;28;657770;-70
2023/07/24 06:33:48;;;;;;;12.17;5.70;;;23.20;99.90;;;;;;4406729;28;658780;-70
2023/07/24 06:36:35;;;;;;;11.53;5.77;;;23.40;99.90;;;;;;4389665;28;657190;-70
2023/07/24 06:39:23;;;;;;;11.87;5.80;;;23.50;99.90;;;;;;4405924;28;658696;-70
2023/07/24 06:42:10;;;;;;;11.82;6.13;;;23.60;99.90;;;;;;4390109;28;657539;-71
2023/07/24 06:44:59;;;;;;;13.00;5.90;;;23.60;99.90;;;;;;4411467;28;657830;-72
2023/07/24 06:47:46;;;;;;;17.83;5.67;;;23.70;99.90;;;;;;4389763;28;658778;-71
2023/07/24 06:50:33;;;;;;;10.47;5.80;;;23.60;99.90;;;;;;4407884;28;658294;-71
2023/07/24 06:53:20;;;;;;;13.63;6.00;;;23.60;99.90;;;;;;4390303;28;657455;-71
2023/07/24 06:56:07;;;;;;;11.13;5.67;;;23.90;99.90;;;;;;4408092;28;658665;-71
2023/07/24 06:58:56;;;;;;;10.80;5.40;;;24.00;99.90;;;;;;4382828;28;657820;-71
2023/07/24 07:01:44;;;;;;;13.10;5.60;;;23.90;99.90;;;;;;4409427;28;658459;-71
2023/07/24 07:04:32;;;;;;;13.30;6.03;;;23.70;99.90;;;;;;4387804;28;657962;-70
2023/07/24 07:07:19;;;;;;;11.77;5.17;;;23.70;99.90;;;;;;4407374;28;657948;-69
2023/07/24 07:10:07;;;;;;;14.10;5.87;;;23.60;99.90;;;;;;4388888;28;657950;-70
2023/07/24 07:12:54;;;;;;;10.77;5.55;;;23.60;99.90;;;;;;4414116;28;658190;-70
2023/07/24 07:15:42;;;;;;;11.02;5.45;;;23.90;99.90;;;;;;4382562;28;657575;-70
2023/07/24 07:18:30;;;;;;;14.73;5.53;;;24.10;99.90;;;;;;4402923;28;657241;-74
2023/07/24 07:21:17;;;;;;;9.60;5.32;;;24.40;99.90;;;;;;4377556;28;658876;-73
2023/07/24 07:24:06;;;;;;;8.45;5.40;;;24.60;99.90;;;;;;4387518;28;656452;-71
2023/07/24 07:26:53;;;;;;;9.70;4.85;;;24.80;99.90;;;;;;4408496;28;657182;-70
2023/07/24 07:29:40;;;;;;;10.07;5.57;;;24.80;99.90;;;;;;4390034;28;656608;-71
2023/07/24 07:32:27;;;;;;;10.32;4.90;;;24.80;99.90;;;;;;4414836;28;657662;-72
2023/07/24 07:35:17;;;;;;;11.68;5.32;;;25.00;99.90;;;;;;4395450;28;657739;-72
2023/07/24 07:38:04;;;;;;;11.60;4.45;;;25.30;99.90;;;;;;4410903;28;658078;-73
2023/07/24 07:40:51;;;;;;;8.25;4.50;;;25.20;99.90;;;;;;4401788;28;657989;-70
2023/07/24 07:43:38;;;;;;;10.18;5.30;;;25.30;99.90;;;;;;4412245;28;657526;-70
2023/07/24 07:46:26;;;;;;;9.45;4.65;;;25.70;99.90;;;;;;4388508;28;657343;-71
2023/07/24 07:49:13;;;;;;;9.30;4.47;;;25.70;99.90;;;;;;4422026;28;658359;-71
2023/07/24 07:52:02;;;;;;;9.25;4.97;;;25.50;99.90;;;;;;4404905;28;656736;-71
2023/07/24 07:54:49;;;;;;;7.50;4.68;;;24.90;99.90;;;;;;4404045;28;656966;-71
2023/07/24 07:57:36;;;;;;;8.02;4.90;;;25.00;99.90;;;;;;4381058;28;656360;-74
2023/07/24 08:00:23;;;;;;;10.20;5.07;;;25.20;99.90;;;;;;4405843;28;658295;-75
2023/07/24 08:03:11;;;;;;;10.40;5.00;;;25.10;99.90;;;;;;4383724;28;657835;-73
2023/07/24 08:05:58;;;;;;;11.75;5.03;;;25.10;99.90;;;;;;4411232;28;658177;-71
2023/07/24 08:08:47;;;;;;;6.90;5.17;;;25.30;99.90;;;;;;4388827;28;657994;-72
2023/07/24 08:11:34;;;;;;;7.65;4.93;;;25.60;99.90;;;;;;4409432;28;656395;-71
2023/07/24 08:14:21;;;;;;;8.25;5.32;;;25.90;99.90;;;;;;4386765;28;657092;-71
2023/07/24 08:17:08;;;;;;;8.75;4.88;;;26.10;95.90;;;;;;4407805;28;657753;-70
2023/07/24 08:19:56;;;;;;;10.27;5.38;;;26.10;96.10;;;;;;4380686;28;656435;-70
2023/07/24 08:22:43;;;;;;;12.93;5.07;;;26.20;98.60;;;;;;4408644;28;659004;-72
2023/07/24 08:25:32;;;;;;;10.23;5.55;;;26.60;99.90;;;;;;4395065;28;657847;-71
2023/07/24 08:28:19;;;;;;;10.02;5.25;;;26.60;94.90;;;;;;4406099;28;657661;-71
2023/07/24 08:31:06;;;;;;;12.48;4.82;;;26.70;93.00;;;;;;4382488;28;657403;-73
2023/07/24 08:33:54;;;;;;;9.10;5.13;;;26.80;90.80;;;;;;4411901;28;659206;-71
2023/07/24 08:36:41;;;;;;;8.77;4.93;;;26.90;92.30;;;;;;4386665;28;656740;-73
2023/07/24 08:39:28;;;;;;;8.32;4.88;;;27.30;94.50;;;;;;4409457;28;656731;-71
2023/07/24 08:42:17;;;;;;;13.30;5.40;;;27.40;75.60;;;;;;4384994;28;657191;-71
2023/07/24 08:45:05;;;;;;;10.07;5.25;;;27.70;74.90;;;;;;4406270;28;658391;-74
2023/07/24 08:47:52;;;;;;;9.75;4.95;;;27.60;68.90;;;;;;4375476;28;658924;-71
2023/07/24 08:50:39;;;;;;;10.88;5.75;;;27.80;65.90;;;;;;4401227;28;656980;-71
2023/07/24 08:53:26;;;;;;;8.97;5.43;;;27.90;66.60;;;;;;4382539;28;659164;-71
2023/07/24 08:56:14;;;;;;;15.75;5.40;;;27.60;66.70;;;;;;4407490;28;656474;-72
2023/07/24 08:59:02;;;;;;;11.05;5.78;;;27.40;67.00;;;;;;4385027;28;657908;-70
2023/07/24 09:01:51;;;;;;;13.15;5.90;;;26.90;69.80;;;;;;4397586;28;657485;-72
2023/07/24 09:04:39;;;;;;;11.95;5.30;;;26.70;69.10;;;;;;4404357;28;657316;-72
2023/07/24 09:07:26;;;;;;;13.90;5.80;;;26.70;73.60;;;;;;4387282;28;659277;-71
2023/07/24 09:10:15;;;;;;;9.57;5.47;;;26.30;76.40;;;;;;4408307;28;658017;-71
2023/07/24 09:13:03;;;;;;;11.35;5.28;;;26.40;75.00;;;;;;4384520;28;657537;-72
2023/07/24 09:15:52;;;;;;;9.48;4.90;;;26.50;73.70;;;;;;4383996;28;657477;-77
2023/07/24 09:18:40;;;;;;;13.25;5.45;;;26.50;68.80;;;;;;4406690;28;657740;-71
2023/07/24 09:21:28;;;;;;;12.65;5.57;;;26.50;71.30;;;;;;4380458;28;659596;-73
2023/07/24 09:24:16;;;;;;;10.30;5.00;;;26.30;71.30;;;;;;4385797;28;657727;-71
2023/07/24 09:27:06;;;;;;;8.40;5.35;;;25.90;72.00;;;;;;4409471;28;657911;-71
2023/07/24 09:29:53;;;;;;;8.80;5.55;;;25.80;73.50;;;;;;4385004;28;657258;-71
2023/07/24 09:32:42;;;;;;;9.80;5.50;;;26.20;76.50;;;;;;4385485;28;657150;-72
2023/07/24 09:35:29;;;;;;;10.77;5.75;;;26.70;77.00;;;;;;4406533;28;656610;-73
2023/07/24 09:38:16;;;;;;;10.60;5.60;;;26.90;75.00;;;;;;4386211;28;658867;-72
2023/07/24 09:41:03;;;;;;;10.30;5.72;;;27.00;75.10;;;;;;4403609;28;658542;-71
2023/07/24 09:43:58;;;;;;;12.90;6.10;;;27.00;75.60;;;;;;4385924;28;658360;-74
2023/07/24 09:46:46;;;;;;;10.07;5.43;;;26.80;77.80;;;;;;4361042;28;657808;-71
2023/07/24 09:49:34;;;;;;;9.70;5.40;;;26.50;70.50;;;;;;4408619;28;658638;-72
2023/07/24 09:52:22;;;;;;;11.02;5.43;;;26.20;70.60;;;;;;4386284;28;657268;-71
2023/07/24 09:55:11;;;;;;;15.40;5.32;;;26.60;67.50;;;;;;4403086;28;658419;-77
2023/07/24 09:57:59;;;;;;;10.32;5.90;;;27.20;59.80;;;;;;4388058;28;658361;-75
2023/07/24 10:00:46;;;;;;;11.90;6.10;;;27.70;62.80;;;;;;4387073;28;657633;-71
2023/07/24 10:03:35;;;;;;;10.98;6.00;;;27.50;65.20;;;;;;4400291;28;658078;-71
2023/07/24 10:06:23;;;;;;;9.48;5.72;;;27.50;58.20;;;;;;4386528;28;657476;-73
2023/07/24 10:09:11;;;;;;;8.80;5.40;;;27.40;57.40;;;;;;4390756;28;656419;-72
2023/07/24 10:11:58;;;;;;;12.18;6.43;;;27.30;59.10;;;;;;4408819;28;657482;-72
2023/07/24 10:14:46;;;;;;;15.10;6.05;;;27.30;60.20;;;;;;4381863;28;657374;-72
2023/07/24 10:17:36;;;;;;;12.77;5.80;;;27.80;60.70;;;;;;4407541;28;658182;-72
2023/07/24 10:20:24;;;;;;;13.23;5.65;;;28.30;54.60;;;;;;4385279;28;659070;-73
2023/07/24 10:23:17;;;;;;;11.27;6.30;;;28.70;55.30;;;;;;4384795;28;657465;-72
2023/07/24 10:26:05;;;;;;;11.05;5.90;;;29.10;51.00;;;;;;4373189;28;657751;-76
2023/07/24 10:28:52;;;;;;;13.48;6.50;;;28.80;49.50;;;;;;4383282;28;658471;-72
2023/07/24 10:31:40;;;;;;;13.75;6.72;;;28.10;50.70;;;;;;4407342;28;657385;-71
2023/07/24 10:34:37;;;;;;;12.82;6.38;;;27.60;52.00;;;;;;4380891;28;658714;-71
2023/07/24 10:37:33;;;;;;;11.02;6.20;;;27.20;54.30;;;;;;4381440;28;658360;-72
2023/07/24 10:40:22;;;;;;;12.95;6.68;;;27.40;52.80;;;;;;4357273;28;657964;-71
2023/07/24 10:43:10;;;;;;;10.98;5.80;;;27.20;53.80;;;;;;4402345;28;657489;-73
2023/07/24 10:45:57;;;;;;;11.57;6.38;;;27.30;54.10;;;;;;4380918;28;658571;-73
2023/07/24 10:48:44;;;;;;;12.48;6.75;;;27.40;54.40;;;;;;4400329;28;658039;-71
2023/07/24 10:51:32;;;;;;;10.77;5.93;;;27.10;55.50;;;;;;4385932;28;657570;-73
2023/07/24 10:54:22;;;;;;;8.88;5.57;;;27.30;54.50;;;;;;4402223;28;657651;-72
2023/07/24 10:57:11;;;;;;;10.95;6.35;;;27.80;54.40;;;;;;4384709;28;656445;-72
2023/07/24 10:59:58;;;;;;;13.68;6.60;;;28.10;53.40;;;;;;4377197;28;658279;-72
2023/07/24 11:02:45;;;;;;;10.10;5.88;;;28.80;52.40;;;;;;4384484;28;657648;-72
2023/07/24 11:05:32;;;;;;;9.95;6.05;;;28.40;49.30;;;;;;4401612;28;658611;-72
2023/07/24 11:08:21;;;;;;;14.27;6.43;;;27.90;52.00;;;;;;4395054;28;656846;-73
2023/07/24 11:11:08;;;;;;;11.18;6.35;;;27.60;51.80;;;;;;4406614;28;658748;-72
2023/07/24 11:13:57;;;;;;;10.90;6.60;;;27.50;52.30;;;;;;4378157;28;657766;-72
2023/07/24 11:16:49;;;;;;;11.45;6.10;;;27.40;53.70;;;;;;4400432;28;658020;-71
2023/07/24 11:19:37;;;;;;;9.40;5.72;;;27.20;54.80;;;;;;4376000;28;657693;-72
2023/07/24 11:22:24;;;;;;;14.93;7.07;;;27.30;53.90;;;;;;4402089;28;656722;-76
2023/07/24 11:25:12;;;;;;;13.65;6.93;;;27.10;55.10;;;;;;4386412;28;657822;-75
2023/07/24 11:27:59;;;;;;;15.65;6.70;;;27.00;56.60;;;;;;4406734;28;657006;-74
2023/07/24 11:30:47;;;;;;;12.93;6.75;;;26.90;57.80;;;;;;4381436;28;657633;-71
2023/07/24 11:33:34;;;;;;;12.98;6.38;;;26.80;57.00;;;;;;4405655;28;657552;-71
2023/07/24 11:36:22;;;;;;;12.30;6.57;;;26.70;58.00;;;;;;4385089;28;657881;-73
2023/07/24 11:39:10;;;;;;;16.25;6.75;;;26.60;59.30;;;;;;4398607;28;658013;-71
2023/07/24 11:41:58;;;;;;;14.82;6.35;;;26.50;58.30;;;;;;4406581;28;658052;-71
2023/07/24 11:44:45;;;;;;;13.63;6.65;;;26.30;58.10;;;;;;4389788;28;657588;-70
2023/07/24 11:47:41;;;;;;;12.10;6.70;;;26.50;61.20;;;;;;4404676;28;657578;-71
2023/07/24 11:50:29;;;;;;;12.73;6.90;;;26.60;60.00;;;;;;4380685;28;658251;-71
2023/07/24 11:53:23;;;;;;;12.05;7.07;;;26.80;62.40;;;;;;4381539;28;657709;-71
2023/07/24 11:56:14;;;;;;;12.25;7.20;;;27.30;60.50;;;;;;4372619;28;658272;-71
2023/07/24 11:59:10;;;;;;;12.20;6.53;;;27.90;60.30;;;;;;4383322;28;657918;-72
2023/07/24 12:01:58;;;;;;;11.20;6.88;;;28.20;55.00;;;;;;4357883;28;657948;-72
2023/07/24 12:04:47;;;;;;;12.43;6.95;;;28.90;58.90;;;;;;4398333;28;657512;-71
2023/07/24 12:07:34;;;;;;;10.85;6.75;;;29.10;56.40;;;;;;4404857;28;657251;-71
2023/07/24 12:10:27;;;;;;;13.25;6.38;;;28.70;55.70;;;;;;4382944;28;657815;-71
2023/07/24 12:13:14;;;;;;;13.73;7.10;;;29.10;55.60;;;;;;4377020;28;657185;-71
2023/07/24 12:16:01;;;;;;;10.98;7.25;;;29.80;54.30;;;;;;4383947;28;657492;-70
2023/07/24 12:18:48;;;;;;;15.05;7.18;;;30.00;52.60;;;;;;4403107;28;657947;-71
2023/07/24 12:21:37;;;;;;;11.98;6.97;;;30.20;54.50;;;;;;4387762;28;657754;-71
2023/07/24 12:24:24;;;;;;;11.57;6.93;;;30.60;52.70;;;;;;4404699;28;658135;-70
2023/07/24 12:27:11;;;;;;;10.50;6.70;;;31.10;50.80;;;;;;4386839;28;658024;-72
2023/07/24 12:29:58;;;;;;;12.32;7.10;;;30.40;49.60;;;;;;4401567;28;658132;-72
2023/07/24 12:32:46;;;;;;;14.23;7.22;;;30.60;49.70;;;;;;4386232;28;657833;-71
2023/07/24 12:35:33;;;;;;;13.70;7.22;;;30.70;49.70;;;;;;4400481;28;658750;-71
2023/07/24 12:38:22;;;;;;;15.48;6.68;;;30.90;50.10;;;;;;4391073;28;657902;-71
2023/07/24 12:41:09;;;;;;;12.48;7.50;;;31.10;49.20;;;;;;4397566;28;658145;-70
2023/07/24 12:43:56;;;;;;;12.13;7.30;;;31.20;47.60;;;;;;4384919;28;657889;-70
2023/07/24 12:46:43;;;;;;;11.85;6.88;;;31.40;49.60;;;;;;4403552;28;658448;-70
2023/07/24 12:49:30;;;;;;;11.65;7.15;;;31.80;49.60;;;;;;4383625;28;657906;-70
2023/07/24 12:52:18;;;;;;;11.95;7.28;;;31.60;44.90;;;;;;4397733;28;659423;-72
2023/07/24 12:55:08;;;;;;;10.90;7.20;;;31.70;43.40;;;;;;4396234;28;657771;-70
2023/07/24 12:57:56;;;;;;;13.73;7.47;;;31.90;43.90;;;;;;4400950;28;657605;-71
2023/07/24 13:00:43;;;;;;;15.18;7.03;;;32.20;45.50;;;;;;4407913;28;658813;-71
2023/07/24 13:03:30;;;;;;;12.55;7.47;;;32.50;45.50;;;;;;4390924;28;657888;-71
2023/07/24 13:06:17;;;;;;;10.60;6.95;;;32.60;43.30;;;;;;4402452;28;658273;-70
2023/07/24 13:09:06;;;;;;;10.93;6.95;;;31.60;45.40;;;;;;4402644;28;658176;-71
2023/07/24 13:11:55;;;;;;;11.70;7.18;;;32.20;46.30;;;;;;4407184;28;657853;-71
2023/07/24 13:14:42;;;;;;;12.15;7.25;;;32.60;45.00;;;;;;4386651;28;658002;-71
2023/07/24 13:17:29;;;;;;;12.85;7.60;;;33.20;45.70;;;;;;4405966;28;658324;-72
2023/07/24 13:20:17;;;;;;;13.52;7.43;;;33.60;43.30;;;;;;4388075;28;657716;-71
2023/07/24 13:23:04;;;;;;;13.98;7.82;;;33.80;42.70;;;;;;4404199;28;657877;-71
2023/07/24 13:25:52;;;;;;;12.00;7.70;;;33.90;43.60;;;;;;4386884;28;657795;-71
2023/07/24 13:28:41;;;;;;;11.23;8.00;;;34.10;40.60;;;;;;4404065;28;657864;-71
2023/07/24 13:31:29;;;;;;;10.85;7.57;;;33.70;41.10;;;;;;4389192;28;658215;-71
2023/07/24 13:34:19;;;;;;;15.38;8.27;;;33.90;44.80;;;;;;4386155;28;657810;-72
2023/07/24 13:37:07;;;;;;;10.98;7.65;;;34.20;45.00;;;;;;4385898;28;658230;-71
2023/07/24 13:39:54;;;;;;;11.45;7.75;;;33.70;42.80;;;;;;4409735;28;658149;-72
2023/07/24 13:42:41;;;;;;;11.45;7.50;;;33.40;38.80;;;;;;4388557;28;657678;-72
2023/07/24 13:45:30;;;;;;;13.85;8.07;;;32.80;41.70;;;;;;4406251;28;657254;-71
2023/07/24 13:48:17;;;;;;;11.70;7.68;;;32.90;45.80;;;;;;4386218;28;658967;-72
2023/07/24 13:51:04;;;;;;;13.10;7.88;;;33.30;43.50;;;;;;4404503;28;657374;-71
2023/07/24 13:53:53;;;;;;;17.00;8.30;;;33.70;42.00;;;;;;4384076;28;657968;-71
2023/07/24 13:56:40;;;;;;;12.35;8.07;;;33.80;42.80;;;;;;4387173;28;657591;-71
2023/07/24 13:59:27;;;;;;;15.43;7.45;;;33.90;44.80;;;;;;4408448;28;657122;-71
2023/07/24 14:02:17;;;;;;;12.60;7.78;;;34.30;41.20;;;;;;4404837;28;658416;-71
2023/07/24 14:05:04;;;;;;;12.73;7.90;;;34.70;41.50;;;;;;4409920;28;659245;-71
2023/07/24 14:07:51;;;;;;;12.00;7.38;;;34.90;44.40;;;;;;4385033;28;657877;-71
2023/07/24 14:10:39;;;;;;;21.65;7.93;;;35.70;44.30;;;;;;4406460;28;658115;-71
2023/07/24 14:13:26;;;;;;;10.27;7.25;;;35.50;41.50;;;;;;4385605;28;658195;-72
2023/07/24 14:16:13;;;;;;;20.10;8.15;;;35.10;37.30;;;;;;4406772;28;658227;-72